• Join FlightAware (Why Join?)
  • Login
  • US Flag 
05:08PM EDT


 

Airport Tracker/Info


-or-


 

Live Flight TrackerFlight Track Log ✈ SWA3943 ✈ 17-May-2013 ✈ KCMH - KBWI

Flight Track Log - Related Links

Times and Time Zones

All times are in EDT time to prevent confusion due to time zone crossing. See the SWA3943 flight status page for this flight to view local times or setup timezone preferences in your user account.

Time Position Orientation Groundspeed Altitude Reporting Facility
EDT Latitude Longitude Course Direction KTS MPH feet Rate Location/Type
08:26PM 39.9944 -82.8767 97° East 156 180 1,300  Level Indianapolis Center
08:27PM 39.9922 -82.8436 95° East 160 184 2,300 1,980 Climbing Indianapolis Center
08:27PM 39.9922 -82.8114 90° East 205 236 3,400 2,760 Climbing Indianapolis Center
08:28PM 39.9903 -82.7214 92° East 240 276 6,600 3,240 Climbing Indianapolis Center
08:29PM 39.9881 -82.6203 92° East 275 316 10,000 2,580 Climbing Indianapolis Center
08:30PM 39.9833 -82.5017 93° East 317 365 11,900 2,460 Climbing Indianapolis Center
08:31PM 39.9769 -82.3369 93° East 378 435 15,100 2,820 Climbing Indianapolis Center
08:32PM 39.9483 -82.1310 97° East  Level FlightAware Approximate
08:32PM 39.9722 -82.1897 92° East 399 459 17,700  Level Indianapolis Center
08:33PM 39.9653 -82.0375 93° East 412 474 19,700 2,040 Climbing Indianapolis Center
08:35PM 39.9581 -81.8783 93° East 431 496 21,900 1,980 Climbing Indianapolis Center
08:36PM 39.9514 -81.7147 93° East 445 512 23,800 1,860 Climbing Indianapolis Center
08:37PM 39.9383 -81.5478 96° East 456 525 25,800 1,560 Climbing Indianapolis Center
08:38PM 39.9161 -81.3847 100° East 470 541 27,000 1,440 Climbing Indianapolis Center
08:39PM 39.8925 -81.2094 100° East 486 559 28,800 1,320 Climbing Indianapolis Center
08:39PM 39.8803 -81.1106 99° East 479 551 29,000 120 Climbing Cleveland Center
08:40PM 39.8581 -80.9400 100° East 479 551 29,000  Level Cleveland Center
08:41PM 39.8356 -80.7697 100° East 479 551 29,000  Level Cleveland Center
08:42PM 39.8086 -80.5967 101° East 479 551 29,000  Level Cleveland Center
08:43PM 39.7856 -80.4236 100° East 485 558 29,000  Level Cleveland Center
08:44PM 39.7603 -80.2508 101° East 485 558 29,000  Level Cleveland Center
08:45PM 39.7367 -80.0783 100° East 485 558 29,000  Level Cleveland Center
08:46PM 39.7108 -79.9083 101° East 485 558 29,000  Level Cleveland Center
08:48PM 39.6658 -79.6003 101° East 487 560 29,000 -60 Level Washington Center
08:49PM 39.6400 -79.4317 101° East 487 560 28,900 -720 Descending Washington Center
08:50PM 39.6164 -79.2578 100° East 487 560 27,600 -1,980 Descending Washington Center
08:51PM 39.5844 -79.0706 102° East 490 564 25,000 -1,320 Descending Washington Center
08:52PM 39.5578 -78.9078 102° East 476 548 25,000  Level Washington Center
08:53PM 39.5308 -78.7450 102° East 463 533 25,000 -1,200 Level Washington Center
08:54PM 39.5058 -78.5797 101° East 463 533 22,600 -2,580 Descending Washington Center
08:55PM 39.4803 -78.4256 102° East 451 519 19,900 -2,700 Descending Washington Center
08:56PM 39.4544 -78.2767 103° East 438 504 17,200 -2,220 Descending Washington Center
08:57PM 39.4453 -78.1339 95° East 414 476 15,500 -1,140 Descending Washington Center
08:58PM 39.4478 -78.0131 88° East 375 432 15,000 -300 Descending Washington Center
08:59PM 39.4458 -77.8947 91° East 345 397 14,900  Descending Washington Center
09:00PM 39.4458 -77.7792 90° East 329 379 15,100 -660 Climbing Washington Center
09:01PM 39.4458 -77.6556 90° East 329 379 13,600 -1,440 Descending Washington Center
09:02PM 39.4458 -77.5400 90° East 329 379 12,200 -1,320 Descending Washington Center
09:03PM 39.4433 -77.4297 92° East 324 373 11,000 -600 Descending Washington Center
09:04PM 39.4500 -77.3000 86° East 310 357 11,000 -420 Level Potomac TRACON
09:05PM 39.4667 -77.1833 79° East 317 365 10,100 -1,200 Descending Potomac TRACON
09:06PM 39.4667 -77.0667 90° East 307 353 8,600 -1,500 Descending Potomac TRACON
09:07PM 39.4667 -76.9667 90° East 298 343 7,100 -1,500 Descending Potomac TRACON
09:08PM 39.4500 -76.8667 102° East 291 335 5,600 -1,440 Descending Potomac TRACON
09:09PM 39.3833 -76.8333 159° South 264 304 4,100 -1,200 Descending Potomac TRACON
09:10PM 39.3333 -76.8667 207° Southwest 250 288 3,300 -600 Descending Potomac TRACON
09:11PM 39.2667 -76.8667 180° South 224 258 3,000 -600 Descending Potomac TRACON
09:12PM 39.2333 -76.8333 142° Southeast 180 207 2,200 -780 Descending Potomac TRACON
09:13PM 39.1833 -76.8000 153° Southeast 160 184 1,500 -480 Descending Potomac TRACON
09:14PM 39.1833 -76.7500 90° East 130 150 1,300 -480 Descending Potomac TRACON
09:15PM 39.1833 -76.7167 90° East 122 140 600 -720 Descending Potomac TRACON
09:17PM 39.1667 -76.6667 142° Southeast  Level FlightAware Approximate
09:24PM 39.1754 -76.6683 142° Southeast  Level Estimated
09:25PM 39.1754 -76.6683 142° Southeast  Level Estimated
09:26PM 39.1754 -76.6683 142° Southeast  Level Estimated